.
WxDataArchive / Data Records for 2012-09-02
2012-09-01 September 2012 2012-09-03

Data Records for Sunday, 02 September 2012

Time	Temp	Chill	HIndex	Humid	Dewpt	 Wind 	HiWind	WindDir	Rain 	Barom 
-----	----	-----	------	-----	-----	------	------	-------	-----	----- 
00:00	72.7	72.7	72.7	93	70.6	1	5	68	0.00	29.988 
00:05	72.7	72.7	72.7	93	70.6	1	3	68	0.00	29.988 
00:10	72.8	72.8	72.8	93	70.7	1	3	68	0.00	29.988 
00:15	72.8	72.8	72.8	93	70.7	2	4	68	0.00	29.984 
00:20	72.8	72.8	72.8	93	70.7	1	5	68	0.00	29.984 
00:25	72.7	72.7	72.7	93	70.6	2	5	90	0.00	29.984 
00:30	72.7	72.7	72.7	93	70.6	2	4	90	0.00	29.980 
00:35	72.7	72.7	72.7	93	70.6	1	3	90	0.00	29.980 
00:40	72.7	72.7	72.7	93	70.6	1	5	90	0.00	29.980 
00:45	72.7	72.7	72.7	93	70.6	1	4	90	0.00	29.988 
00:50	72.7	72.7	72.7	93	70.6	0	3	90	0.00	29.988 
00:55	72.7	72.7	72.7	93	70.6	1	5	90	0.00	29.988 
01:00	72.7	72.7	72.7	93	70.6	1	3	90	0.00	29.978 
01:05	72.5	72.5	72.5	93	70.4	1	4	90	0.00	29.978 
01:10	72.5	72.5	72.5	93	70.4	1	3	90	0.00	29.978 
01:15	72.5	72.5	72.5	93	70.4	0	2	90	0.00	29.975 
01:20	72.5	72.5	72.5	93	70.4	0	2	90	0.00	29.975 
01:25	72.3	72.3	72.3	93	70.2	0	1	90	0.00	29.975 
01:30	72.3	72.3	72.3	93	70.2	0	0	---	0.00	29.976 
01:35	72.1	72.1	72.1	93	70.0	0	3	90	0.00	29.976 
01:40	72.1	72.1	72.1	94	70.3	0	1	90	0.00	29.976 
01:45	72.1	72.1	72.1	94	70.3	1	3	90	0.00	29.975 
01:50	72.1	72.1	72.1	94	70.3	0	3	90	0.00	29.975 
01:55	72.1	72.1	72.1	94	70.3	0	1	90	0.00	29.975 
02:00	72.0	72.0	72.0	94	70.2	1	4	90	0.00	29.972 
02:05	72.0	72.0	72.0	94	70.2	1	4	90	0.00	29.972 
02:10	71.8	71.8	71.8	94	70.0	1	3	90	0.00	29.972 
02:15	71.8	71.8	71.8	94	70.0	0	1	90	0.00	29.977 
02:20	71.8	71.8	71.8	94	70.0	1	2	90	0.04	29.977 
02:25	71.8	71.8	71.8	94	70.0	1	5	90	0.05	29.977 
02:30	71.8	71.8	71.8	94	70.0	1	3	112	0.02	29.963 
02:35	71.8	71.8	71.8	94	70.0	0	1	112	0.00	29.963 
02:40	71.6	71.6	71.6	94	69.8	0	2	112	0.00	29.963 
02:45	71.6	71.6	71.6	95	70.1	1	3	112	0.00	29.960 
02:50	71.6	71.6	71.6	95	70.1	1	3	112	0.00	29.960 
02:55	71.5	71.5	71.5	95	70.0	1	4	112	0.00	29.960 
03:00	71.5	71.5	71.5	95	70.0	0	1	112	0.00	29.962 
03:05	71.5	71.5	71.5	95	70.0	0	0	---	0.04	29.962 
03:10	71.5	71.5	71.5	95	70.0	0	0	---	0.03	29.962 
03:15	71.5	71.5	71.5	95	70.0	1	3	112	0.00	29.956 
03:20	71.5	71.5	71.5	95	70.0	2	5	112	0.02	29.956 
03:25	71.5	71.5	71.5	95	70.0	1	3	112	0.01	29.956 
03:30	71.5	71.5	71.5	95	70.0	1	3	112	0.01	29.956 
03:35	71.3	71.3	71.3	95	69.8	1	5	112	0.00	29.956 
03:40	71.3	71.3	71.3	95	69.8	2	5	68	0.00	29.956 
03:45	71.3	71.3	71.3	95	69.8	2	5	90	0.00	29.946 
03:50	71.1	71.1	71.1	95	69.6	2	4	90	0.00	29.946 
03:55	71.1	71.1	71.1	95	69.6	0	2	90	0.00	29.946 
04:00	71.1	71.1	71.1	95	69.6	1	4	90	0.00	29.943 
04:05	71.1	71.1	71.1	96	69.9	1	4	90	0.00	29.943 
04:10	71.3	71.3	71.3	96	70.1	1	4	90	0.00	29.943 
04:15	71.5	71.5	71.5	96	70.3	0	2	90	0.00	29.934 
04:20	71.6	71.6	71.6	96	70.4	1	3	90	0.00	29.934 
04:25	71.6	71.6	71.6	96	70.4	0	1	90	0.00	29.934 
04:30	71.6	71.6	71.6	96	70.4	0	1	90	0.00	29.923 
04:35	71.6	71.6	71.6	96	70.4	2	5	68	0.00	29.923 
04:40	71.5	71.5	71.5	96	70.3	1	6	68	0.00	29.923 
04:45	71.5	71.5	71.5	96	70.3	1	4	68	0.00	29.918 
04:50	71.3	71.3	71.3	96	70.1	2	5	68	0.00	29.918 
04:55	70.9	70.9	70.9	95	69.4	2	6	112	0.00	29.918 
05:00	70.6	70.6	70.6	95	69.1	1	3	112	0.00	29.922 
05:05	70.4	70.4	70.4	96	69.2	1	3	112	0.00	29.922 
05:10	70.3	70.3	70.3	96	69.1	1	3	112	0.00	29.922 
05:15	70.1	70.1	70.1	96	68.9	0	2	112	0.00	29.932 
05:20	69.9	69.9	69.9	96	68.7	1	3	112	0.00	29.932 
05:25	69.9	69.9	69.9	96	68.7	1	3	112	0.00	29.932 
05:30	69.8	69.8	69.8	96	68.6	1	3	112	0.00	29.934 
05:35	69.6	69.6	69.6	96	68.4	1	4	112	0.00	29.934 
05:40	69.4	69.4	69.4	96	68.2	1	4	112	0.00	29.934 
05:45	69.4	69.4	69.4	96	68.2	2	5	112	0.00	29.933 
05:50	69.4	69.4	69.4	96	68.2	1	4	112	0.00	29.933 
05:55	69.4	69.4	69.4	96	68.2	2	4	45	0.00	29.933 
06:00	69.4	69.4	69.4	96	68.2	1	4	45	0.00	29.935 
06:05	69.4	69.4	69.4	96	68.2	2	7	90	0.00	29.935 
06:10	69.4	69.4	69.4	96	68.2	1	4	90	0.00	29.935 
06:15	69.4	69.4	69.4	96	68.2	1	3	90	0.00	29.935 
06:20	69.6	69.6	69.6	96	68.4	2	4	90	0.00	29.935 
06:25	69.6	69.6	69.6	96	68.4	2	6	90	0.00	29.935 
06:30	69.8	69.8	69.8	96	68.6	2	4	90	0.00	29.933 
06:35	69.9	69.9	69.9	96	68.7	2	4	90	0.00	29.933 
06:40	70.3	70.3	70.3	96	69.1	2	6	90	0.00	29.933 
06:45	70.4	70.4	70.4	96	69.2	2	6	90	0.00	29.932 
06:50	70.8	70.8	70.8	96	69.6	1	3	90	0.00	29.932 
06:55	70.9	70.9	70.9	96	69.7	1	5	90	0.00	29.932 
07:00	71.1	71.1	71.1	96	69.9	2	5	90	0.00	29.932 
07:05	71.3	71.3	71.3	96	70.1	2	5	90	0.00	29.932 
07:10	71.3	71.3	71.3	96	70.1	2	4	68	0.00	29.932 
07:15	71.3	71.3	71.3	96	70.1	2	5	68	0.00	29.933 
07:20	71.3	71.3	71.3	96	70.1	2	7	90	0.00	29.933 
07:25	71.3	71.3	71.3	96	70.1	3	7	90	0.00	29.933 
07:30	71.3	71.3	71.3	96	70.1	2	6	112	0.00	29.933 
07:35	71.3	71.3	71.3	96	70.1	2	4	112	0.00	29.933 
07:40	71.1	71.1	71.1	96	69.9	2	5	68	0.00	29.933 
07:45	71.1	71.1	71.1	96	69.9	2	4	68	0.00	29.932 
07:50	71.1	71.1	71.1	96	69.9	3	6	68	0.00	29.932 
07:55	71.3	71.3	71.3	96	70.1	2	5	90	0.00	29.932 
08:00	71.3	71.3	71.3	96	70.1	2	7	90	0.00	29.932 
08:05	71.3	71.3	71.3	96	70.1	2	5	68	0.00	29.932 
08:10	71.3	71.3	71.3	96	70.1	1	3	68	0.00	29.932 
08:15	71.5	71.5	71.5	96	70.3	2	6	68	0.00	29.929 
08:20	71.5	71.5	71.5	96	70.3	3	7	90	0.00	29.929 
08:25	71.5	71.5	71.5	96	70.3	3	5	90	0.00	29.929 
08:30	71.6	71.6	71.6	96	70.4	2	6	68	0.00	29.928 
08:35	71.6	71.6	71.6	96	70.4	2	5	90	0.00	29.928 
08:40	71.6	71.6	71.6	96	70.4	2	6	90	0.00	29.928 
08:45	71.6	71.6	71.6	96	70.4	2	6	68	0.00	29.926 
08:50	71.8	71.8	71.8	96	70.6	3	7	68	0.00	29.926 
08:55	71.8	71.8	71.8	96	70.6	2	4	68	0.00	29.926 
09:00	72.0	72.0	72.0	96	70.8	1	4	68	0.00	29.930 
09:05	72.0	72.0	72.0	96	70.8	1	3	68	0.00	29.930 
09:10	72.0	72.0	72.0	96	70.8	2	5	90	0.00	29.930 
09:15	72.0	72.0	72.0	96	70.8	1	4	90	0.00	29.932 
09:20	72.3	72.3	72.3	96	71.1	1	4	90	0.00	29.932 
09:25	72.3	72.3	72.3	96	71.1	2	5	90	0.00	29.932 
09:30	72.5	72.5	72.5	96	71.3	3	6	90	0.00	29.930 
09:35	72.7	72.7	72.7	96	71.5	2	5	90	0.00	29.930 
09:40	72.8	72.8	72.8	96	71.6	3	7	90	0.00	29.930 
09:45	73.2	73.2	73.2	96	72.0	3	7	90	0.00	29.929 
09:50	73.2	73.2	73.2	96	72.0	3	6	90	0.00	29.929 
09:55	73.5	73.5	73.5	96	72.3	2	5	90	0.00	29.929 
10:00	73.7	73.7	73.7	95	72.2	3	5	90	0.00	29.930 
10:05	74.0	74.0	74.0	95	72.5	2	5	68	0.00	29.930 
10:10	74.0	74.0	74.0	94	72.2	3	7	90	0.00	29.930 
10:15	74.2	74.2	74.2	94	72.4	2	7	112	0.00	29.929 
10:20	74.6	74.6	74.6	93	72.4	1	4	112	0.00	29.929 
10:25	74.4	74.4	74.4	92	71.9	3	9	68	0.00	29.929 
10:30	74.4	74.4	74.4	90	71.3	3	7	90	0.00	29.929 
10:35	74.6	74.6	74.6	90	71.5	3	6	90	0.00	29.929 
10:40	74.6	74.6	74.6	89	71.1	3	9	90	0.00	29.929 
10:45	74.7	74.7	74.7	89	71.2	2	5	90	0.00	29.930 
10:50	74.7	74.7	74.7	88	70.9	3	11	68	0.00	29.930 
10:55	74.9	74.9	74.9	88	71.1	3	7	112	0.00	29.930 
11:00	75.1	75.1	74.7	87	71.0	3	6	90	0.00	29.929 
11:05	75.3	75.3	75.1	87	71.2	3	6	90	0.00	29.929 
11:10	75.4	75.4	75.4	86	70.9	3	7	68	0.00	29.929 
11:15	75.6	75.6	75.8	86	71.1	2	5	90	0.00	29.928 
11:20	76.0	76.0	76.6	85	71.2	2	4	90	0.00	29.928 
11:25	76.3	76.3	77.2	84	71.1	2	4	90	0.00	29.928 
11:30	76.3	76.3	77.2	84	71.1	2	5	90	0.00	29.929 
11:35	76.3	76.3	77.2	84	71.1	2	7	112	0.00	29.929 
11:40	76.1	76.1	76.8	84	70.9	3	6	90	0.00	29.929 
11:45	76.1	76.1	76.8	84	70.9	3	9	90	0.00	29.928 
11:50	76.1	76.1	76.7	85	71.2	3	6	68	0.00	29.928 
11:55	76.3	76.3	77.2	84	71.1	2	6	68	0.00	29.928 
12:00	76.3	76.3	77.1	85	71.4	2	5	90	0.00	29.929 
12:05	76.5	76.5	77.5	85	71.6	2	6	68	0.00	29.929 
12:10	76.7	76.7	77.8	85	71.8	2	10	68	0.00	29.929 
12:15	76.7	76.7	77.9	84	71.5	3	6	90	0.00	29.920 
12:20	76.8	76.8	78.1	84	71.6	4	9	90	0.00	29.920 
12:25	77.2	77.2	78.8	83	71.6	4	9	90	0.00	29.920 
12:30	77.4	77.4	79.2	83	71.8	3	7	90	0.00	29.919 
12:35	77.6	77.6	79.6	83	72.0	3	7	90	0.00	29.919 
12:40	77.7	77.7	79.8	82	71.8	4	10	90	0.00	29.919 
12:45	77.7	77.7	79.8	83	72.1	4	10	90	0.00	29.922 
12:50	77.7	77.7	79.8	82	71.8	4	11	90	0.00	29.922 
12:55	77.6	77.6	79.6	82	71.7	3	9	112	0.00	29.922 
13:00	77.6	77.6	79.6	83	72.0	3	8	112	0.00	29.920 
13:05	77.4	77.4	79.2	83	71.8	3	9	90	0.00	29.920 
13:10	77.4	77.4	79.2	83	71.8	3	7	90	0.00	29.920 
13:15	77.4	77.4	79.2	83	71.8	2	6	90	0.00	29.919 
13:20	77.2	77.2	78.8	84	72.0	2	5	90	0.00	29.919 
13:25	77.0	77.0	78.5	83	71.4	3	5	112	0.00	29.919 
13:30	76.8	76.8	78.1	84	71.6	2	5	112	0.00	29.917 
13:35	76.7	76.7	77.9	84	71.5	3	11	90	0.00	29.917 
13:40	76.7	76.7	77.9	84	71.5	4	10	90	0.00	29.917 
13:45	76.5	76.5	77.6	83	70.9	3	7	90	0.00	29.918 
13:50	76.7	76.7	77.9	83	71.1	3	6	90	0.00	29.918 
13:55	76.8	76.8	78.1	83	71.2	4	11	90	0.00	29.918 
14:00	76.8	76.8	78.1	83	71.2	3	11	90	0.00	29.916 
14:05	77.0	77.0	78.5	83	71.4	3	7	90	0.00	29.916 
14:10	77.2	77.2	78.9	82	71.3	3	10	90	0.00	29.916 
14:15	77.2	77.2	78.9	82	71.3	2	6	90	0.00	29.915 
14:20	77.2	77.2	78.9	82	71.3	3	7	68	0.00	29.915 
14:25	77.4	77.4	79.2	83	71.8	2	5	112	0.00	29.915 
14:30	77.6	77.6	79.6	83	72.0	2	4	112	0.00	29.911 
14:35	77.7	77.7	79.8	82	71.8	2	6	112	0.00	29.911 
14:40	78.1	78.1	80.5	81	71.8	2	10	90	0.00	29.911 
14:45	78.3	78.3	80.9	81	72.0	4	10	90	0.00	29.899 
14:50	78.5	78.5	81.3	81	72.2	3	7	112	0.00	29.899 
14:55	78.5	78.5	81.3	81	72.2	3	7	90	0.00	29.899 
15:00	78.5	78.5	81.3	81	72.2	2	6	112	0.00	29.896 
15:05	78.3	78.3	80.9	81	72.0	3	10	90	0.00	29.896 
15:10	78.1	78.1	80.5	80	71.4	3	12	68	0.00	29.896 
15:15	78.3	78.3	80.8	80	71.6	4	9	68	0.00	29.893 
15:20	78.5	78.5	81.2	80	71.8	2	7	68	0.00	29.893 
15:25	78.6	78.6	81.4	80	71.9	3	7	90	0.00	29.893 
15:30	78.8	78.8	81.8	80	72.1	3	7	68	0.00	29.882 
15:35	79.0	79.0	82.2	80	72.3	3	9	90	0.00	29.882 
15:40	79.0	79.0	82.2	80	72.3	3	7	90	0.00	29.882 
15:45	79.2	79.2	82.6	80	72.5	4	9	90	0.00	29.878 
15:50	79.2	79.2	82.6	80	72.5	3	10	90	0.00	29.878 
15:55	79.8	79.8	83.8	80	73.1	2	6	90	0.00	29.878 
16:00	80.1	80.1	84.2	78	72.6	4	11	90	0.00	29.875 
16:05	80.3	80.3	84.4	77	72.4	3	9	90	0.00	29.875 
16:10	80.3	80.3	84.4	77	72.4	3	8	90	0.00	29.875 
16:15	80.3	80.3	84.3	76	72.0	4	13	90	0.00	29.867 
16:20	80.1	80.1	84.0	77	72.2	5	12	90	0.00	29.867 
16:25	80.1	80.1	84.0	77	72.2	3	9	112	0.00	29.867 
16:30	80.3	80.3	84.3	76	72.0	4	11	90	0.00	29.865 
16:35	80.7	80.7	85.2	77	72.8	3	7	90	0.00	29.865 
16:40	81.2	81.2	85.9	75	72.5	4	8	90	0.00	29.865 
16:45	81.6	81.6	86.5	74	72.5	4	11	112	0.00	29.855 
16:50	81.8	81.8	86.9	74	72.7	3	7	90	0.00	29.855 
16:55	82.0	82.0	87.3	74	72.9	3	6	90	0.00	29.855 
17:00	82.0	82.0	87.3	74	72.9	3	7	90	0.00	29.849 
17:05	82.0	82.0	87.1	73	72.5	4	10	90	0.00	29.849 
17:10	81.8	81.8	86.7	73	72.3	5	11	90	0.00	29.849 
17:15	81.6	81.6	86.5	74	72.5	3	9	90	0.00	29.853 
17:20	81.6	81.6	86.3	73	72.1	3	9	90	0.00	29.853 
17:25	81.4	81.4	85.9	73	71.9	4	10	90	0.00	29.853 
17:30	81.2	81.2	85.5	73	71.7	3	10	90	0.00	29.855 
17:35	81.2	81.2	85.3	72	71.3	3	6	90	0.00	29.855 
17:40	81.2	81.2	85.5	73	71.7	3	7	90	0.00	29.855 
17:45	81.4	81.4	85.9	73	71.9	3	6	90	0.00	29.857 
17:50	81.4	81.4	86.1	74	72.3	2	7	112	0.00	29.857 
17:55	81.2	81.2	85.5	73	71.7	3	7	90	0.00	29.857 
18:00	81.2	81.2	85.7	74	72.1	1	5	90	0.00	29.861 
18:05	81.1	81.1	85.5	74	72.0	3	7	68	0.00	29.861 
18:10	80.9	80.9	85.1	74	71.8	2	5	90	0.00	29.861 
18:15	80.7	80.7	84.9	75	72.0	3	6	90	0.00	29.854 
18:20	80.5	80.5	84.7	76	72.2	4	6	90	0.00	29.854 
18:25	80.3	80.3	84.3	76	72.0	3	7	90	0.00	29.854 
18:30	80.1	80.1	84.0	77	72.2	3	6	68	0.00	29.859 
18:35	79.9	79.9	83.6	77	72.0	3	8	68	0.00	29.859 
18:40	79.9	79.9	83.6	77	72.0	3	7	90	0.00	29.859 
18:45	79.8	79.8	83.6	78	72.3	3	7	90	0.00	29.858 
18:50	79.8	79.8	83.6	78	72.3	3	9	90	0.00	29.858 
18:55	79.6	79.6	83.3	79	72.5	1	5	68	0.00	29.858 
19:00	79.4	79.4	82.9	79	72.3	3	9	90	0.00	29.855 
19:05	79.4	79.4	82.9	79	72.3	2	5	90	0.00	29.855 
19:10	79.2	79.2	82.5	79	72.1	2	4	68	0.00	29.855 
19:15	79.2	79.2	82.5	79	72.1	3	6	90	0.00	29.859 
19:20	79.0	79.0	82.0	78	71.5	2	6	68	0.00	29.859 
19:25	78.8	78.8	81.7	78	71.3	3	7	68	0.00	29.859 
19:30	78.8	78.8	81.7	78	71.3	3	8	90	0.00	29.865 
19:35	78.6	78.6	81.4	79	71.5	2	4	90	0.00	29.865 
19:40	78.6	78.6	81.4	79	71.5	3	7	90	0.00	29.865 
19:45	78.5	78.5	81.2	79	71.4	2	6	90	0.00	29.867 
19:50	78.5	78.5	81.2	79	71.4	2	6	90	0.00	29.867 
19:55	78.3	78.3	80.8	79	71.2	2	6	90	0.00	29.867 
20:00	78.3	78.3	80.8	79	71.2	3	9	90	0.00	29.873 
20:05	78.1	78.1	80.5	79	71.0	3	7	90	0.00	29.873 
20:10	77.9	77.9	80.1	80	71.2	2	6	90	0.00	29.873 
20:15	77.9	77.9	80.1	81	71.6	2	10	90	0.00	29.873 
20:20	77.7	77.7	79.8	81	71.4	2	6	90	0.00	29.873 
20:25	77.6	77.6	79.6	80	70.9	2	5	90	0.00	29.873 
20:30	77.4	77.4	79.2	80	70.7	2	6	90	0.00	29.870 
20:35	77.4	77.4	79.2	80	70.7	2	6	90	0.00	29.870 
20:40	77.2	77.2	78.9	80	70.5	2	5	90	0.00	29.870 
20:45	77.2	77.2	78.9	80	70.5	2	11	90	0.00	29.872 
20:50	77.2	77.2	78.9	80	70.5	3	8	90	0.00	29.872 
20:55	77.2	77.2	78.9	80	70.5	2	9	112	0.00	29.872 
21:00	77.0	77.0	78.6	80	70.3	2	6	90	0.00	29.870 
21:05	77.0	77.0	78.5	81	70.7	2	7	90	0.00	29.870 
21:10	76.8	76.8	78.2	81	70.5	2	7	112	0.00	29.870 
21:15	76.8	76.8	78.2	81	70.5	3	9	90	0.00	29.871 
21:20	76.7	76.7	78.0	82	70.8	3	9	90	0.00	29.871 
21:25	76.7	76.7	77.9	83	71.1	2	5	112	0.00	29.871 
21:30	76.5	76.5	77.5	84	71.3	3	7	90	0.00	29.870 
21:35	76.3	76.3	77.2	84	71.1	3	7	112	0.00	29.870 
21:40	76.1	76.1	76.8	84	70.9	2	9	90	0.00	29.870 
21:45	76.0	76.0	76.6	85	71.2	2	6	90	0.00	29.874 
21:50	75.8	75.8	76.2	85	71.0	2	5	90	0.00	29.874 
21:55	75.6	75.6	75.8	86	71.1	3	9	90	0.00	29.874 
22:00	75.4	75.4	75.4	86	70.9	3	6	90	0.00	29.880 
22:05	75.3	75.3	75.2	86	70.8	1	5	68	0.00	29.880 
22:10	75.1	75.1	74.7	87	71.0	3	6	90	0.00	29.880 
22:15	75.1	75.1	74.7	87	71.0	3	10	90	0.00	29.883 
22:20	74.9	74.9	74.9	87	70.8	2	6	90	0.00	29.883 
22:25	74.7	74.7	74.7	88	70.9	2	6	90	0.00	29.883 
22:30	74.6	74.6	74.6	88	70.8	2	6	135	0.00	29.893 
22:35	74.6	74.6	74.6	88	70.8	2	4	112	0.00	29.893 
22:40	74.4	74.4	74.4	88	70.6	3	11	90	0.00	29.893 
22:45	74.4	74.4	74.4	88	70.6	3	6	90	0.00	29.898 
22:50	74.2	74.2	74.2	88	70.4	1	4	90	0.00	29.898 
22:55	74.2	74.2	74.2	88	70.4	2	4	68	0.00	29.898 
23:00	74.0	74.0	74.0	88	70.2	2	4	90	0.00	29.899 
23:05	74.0	74.0	74.0	88	70.2	2	6	90	0.00	29.899 
23:10	73.9	73.9	73.9	88	70.1	1	6	90	0.00	29.899 
23:15	73.7	73.7	73.7	88	69.9	1	5	90	0.00	29.897 
23:20	73.7	73.7	73.7	88	69.9	2	7	90	0.00	29.897 
23:25	73.5	73.5	73.5	88	69.7	2	6	90	0.00	29.897 
23:30	73.3	73.3	73.3	88	69.5	4	7	90	0.00	29.898 
23:35	73.2	73.2	73.2	88	69.4	3	7	90	0.00	29.898 
23:40	73.2	73.2	73.2	88	69.4	2	9	90	0.00	29.898 
23:45	73.2	73.2	73.2	88	69.4	2	4	112	0.00	29.896 
23:50	73.2	73.2	73.2	88	69.4	2	6	68	0.00	29.896 
23:55	73.0	73.0	73.0	88	69.2	1	4	68	0.00	29.896 

CoCoRaHS
IN-AL-39
A2 Web Hosting
Creative Commons License
GoDaddy
search engine by freefind advanced

loaded 2018-11-15 14:32:04 • last modified 2010-11-18 10:43:29
Privacy PolicyDisclaimer
• wx.awcolley.com is powered by PmWiki v.2002016 •
• all content (unless otherwise noted) © 2018 A W Colley